Time;durP1;ratioP1;P1;durP2;ratioP2;P2;SDS_P1;SDS_P2;PMS_P1;PMS_P2;Temp;Humidity;BMP_temperature;BMP_pressure;BME280_temperature;BME280_humidity;BME280_pressure;Samples;Min_cycle;Max_cycle;Signal;HPM_P1;HPM_P2
2023/03/22 00:01:19;;;;;;;8.97;2.37;;;10.00;99.90;;;;;;5033831;28;20224;-86
2023/03/22 00:03:46;;;;;;;2.63;0.77;;;9.90;99.90;;;;;;5034594;28;20220;-87
2023/03/22 00:06:12;;;;;;;5.80;1.50;;;10.00;99.90;;;;;;5036225;28;20210;-85
2023/03/22 00:08:39;;;;;;;1.17;0.97;;;9.90;99.90;;;;;;5059096;28;20178;-85
2023/03/22 00:11:06;;;;;;;1.13;1.03;;;10.00;99.90;;;;;;5033978;28;20205;-87
2023/03/22 00:13:33;;;;;;;0.93;0.60;;;10.00;99.90;;;;;;5041906;28;20595;-85
2023/03/22 00:16:01;;;;;;;0.53;0.53;;;10.00;99.90;;;;;;5031327;28;20637;-85
2023/03/22 00:18:28;;;;;;;2.37;1.63;;;10.00;99.90;;;;;;5032885;28;20215;-85
2023/03/22 00:20:56;;;;;;;3.70;1.20;;;10.00;99.90;;;;;;5036090;28;20533;-85
2023/03/22 00:23:23;;;;;;;3.30;0.97;;;10.00;99.90;;;;;;5036756;28;20599;-86
2023/03/22 00:25:49;;;;;;;3.20;1.70;;;10.00;99.90;;;;;;5033520;28;20226;-85
2023/03/22 00:28:15;;;;;;;2.70;0.93;;;10.00;99.90;;;;;;5026603;28;20275;-85
2023/03/22 00:30:42;;;;;;;0.47;0.47;;;10.00;99.90;;;;;;5033286;28;20317;-88
2023/03/22 00:33:08;;;;;;;0.67;0.53;;;10.00;99.90;;;;;;5034283;28;20225;-86
2023/03/22 00:35:34;;;;;;;2.37;1.00;;;10.00;99.90;;;;;;5031659;28;20524;-88
2023/03/22 00:38:05;;;;;;;1.30;1.20;;;10.00;99.90;;;;;;5036497;28;20197;-87
2023/03/22 00:40:32;;;;;;;0.60;0.60;;;10.00;99.90;;;;;;5019869;28;20223;-85
2023/03/22 00:42:58;;;;;;;2.37;2.17;;;10.00;99.90;;;;;;5035183;28;20217;-87
2023/03/22 00:45:24;;;;;;;0.20;0.20;;;10.00;99.90;;;;;;5022723;28;20238;-86
2023/03/22 00:47:50;;;;;;;1.40;0.60;;;10.00;99.90;;;;;;5037147;28;20194;-86
2023/03/22 00:50:16;;;;;;;11.03;1.17;;;10.00;99.90;;;;;;5035578;28;20233;-84
2023/03/22 00:52:41;;;;;;;3.80;0.83;;;9.90;99.90;;;;;;5020389;28;20218;-84
2023/03/22 00:55:10;;;;;;;2.33;1.40;;;9.90;99.90;;;;;;5021116;28;20224;-86
2023/03/22 00:57:36;;;;;;;2.67;0.87;;;10.00;99.90;;;;;;5035755;28;21217;-85
2023/03/22 01:00:10;;;;;;;15.17;1.67;;;9.90;99.90;;;;;;5038971;28;20223;-86
2023/03/22 01:02:36;;;;;;;0.57;0.57;;;9.90;99.90;;;;;;5045856;28;20209;-84
2023/03/22 01:05:02;;;;;;;2.60;1.47;;;9.90;99.90;;;;;;5020570;28;20280;-85
2023/03/22 01:07:27;;;;;;;0.60;0.50;;;9.90;99.90;;;;;;5038831;28;20253;-89
2023/03/22 01:09:54;;;;;;;4.20;1.40;;;9.90;99.90;;;;;;5038163;28;20714;-84
2023/03/22 01:12:20;;;;;;;3.73;1.33;;;9.90;99.90;;;;;;5030164;28;20214;-84
2023/03/22 01:14:45;;;;;;;3.30;0.87;;;9.90;99.90;;;;;;5037469;28;20186;-84
2023/03/22 01:17:11;;;;;;;8.50;2.00;;;9.90;99.90;;;;;;5037893;28;20268;-91
2023/03/22 01:19:37;;;;;;;0.60;0.60;;;9.90;99.90;;;;;;5038114;28;20214;-85
2023/03/22 01:22:04;;;;;;;3.53;1.17;;;9.90;99.90;;;;;;5023209;28;20226;-84
2023/03/22 01:24:30;;;;;;;0.60;0.60;;;9.90;99.90;;;;;;5037851;28;20209;-85
2023/03/22 01:26:56;;;;;;;4.73;1.10;;;9.90;99.90;;;;;;5037626;28;20228;-89
2023/03/22 01:29:23;;;;;;;4.43;1.07;;;9.90;99.90;;;;;;5029469;28;20204;-86
2023/03/22 01:31:49;;;;;;;1.50;1.40;;;9.80;99.90;;;;;;5062288;28;20218;-86
2023/03/22 01:34:15;;;;;;;1.37;0.90;;;9.80;99.90;;;;;;5017563;28;20253;-85
2023/03/22 01:36:41;;;;;;;1.97;0.47;;;9.80;99.90;;;;;;5038299;28;20683;-85
2023/03/22 01:39:07;;;;;;;10.50;3.10;;;9.70;99.90;;;;;;5037471;28;20218;-86
2023/03/22 01:41:33;;;;;;;1.33;1.23;;;9.70;99.90;;;;;;5028789;28;20210;-86
2023/03/22 01:44:20;;;;;;;1.23;0.50;;;9.70;99.90;;;;;;5045957;28;20253;-85
2023/03/22 01:46:48;;;;;;;18.80;0.60;;;9.70;99.90;;;;;;5035928;28;21015;-85
2023/03/22 01:49:31;;;;;;;2.00;0.40;;;9.60;99.90;;;;;;5027874;28;20232;-85
2023/03/22 01:52:02;;;;;;;0.90;0.80;;;9.60;99.90;;;;;;5037256;28;20240;-85
2023/03/22 01:54:39;;;;;;;0.50;0.50;;;9.60;99.90;;;;;;5061480;28;20259;-85
2023/03/22 01:57:05;;;;;;;0.60;0.60;;;9.60;99.90;;;;;;5036469;28;20230;-85
2023/03/22 01:59:31;;;;;;;0.40;0.40;;;9.60;99.90;;;;;;5037561;28;20644;-84
2023/03/22 02:01:59;;;;;;;0.20;0.20;;;9.50;99.90;;;;;;5020719;28;20224;-84
2023/03/22 02:04:32;;;;;;;2.67;1.47;;;9.50;99.90;;;;;;5028061;28;20360;-88
2023/03/22 02:07:08;;;;;;;0.70;0.70;;;9.50;99.90;;;;;;5038571;28;20305;-88
2023/03/22 02:09:38;;;;;;;0.33;0.33;;;9.50;99.90;;;;;;5037625;28;20313;-84
2023/03/22 02:12:22;;;;;;;0.70;0.60;;;9.50;99.90;;;;;;5037462;28;20699;-88
2023/03/22 02:15:37;;;;;;;4.50;1.30;;;9.50;99.90;;;;;;5036846;28;20185;-84
2023/03/22 02:18:15;;;;;;;0.83;0.43;;;9.60;99.90;;;;;;4992167;28;20232;-87
2023/03/22 02:21:18;;;;;;;0.20;0.20;;;9.60;99.90;;;;;;5037886;28;20285;-85
2023/03/22 02:24:05;;;;;;;6.73;0.73;;;9.70;99.90;;;;;;5052516;28;20652;-86
2023/03/22 02:26:59;;;;;;;0.53;0.53;;;9.70;99.90;;;;;;5038486;28;20240;-83
2023/03/22 02:29:28;;;;;;;2.27;1.07;;;9.80;99.90;;;;;;5044593;28;20276;-86
2023/03/22 02:32:33;;;;;;;0.20;0.20;;;9.80;99.90;;;;;;5035635;28;20226;-86
2023/03/22 02:35:34;;;;;;;1.80;1.00;;;9.80;99.90;;;;;;5043362;28;20210;-85
2023/03/22 02:38:15;;;;;;;8.50;0.87;;;9.80;99.90;;;;;;5004177;28;20214;-88
2023/03/22 02:40:59;;;;;;;1.17;0.67;;;9.80;99.90;;;;;;5035930;28;20226;-87
2023/03/22 02:43:33;;;;;;;8.80;1.17;;;9.80;99.90;;;;;;5052450;28;20222;-86
2023/03/22 02:46:24;;;;;;;0.53;0.53;;;9.80;99.90;;;;;;5036400;28;20230;-88
2023/03/22 02:49:11;;;;;;;9.70;0.93;;;9.80;99.90;;;;;;5052588;28;20706;-87
2023/03/22 02:51:49;;;;;;;0.70;0.70;;;9.80;99.90;;;;;;5034693;28;20264;-86
2023/03/22 02:54:40;;;;;;;3.37;0.80;;;9.80;99.90;;;;;;5043359;28;20222;-84
2023/03/22 02:57:15;;;;;;;1.20;0.43;;;9.80;99.90;;;;;;5035533;28;20236;-84
2023/03/22 02:59:42;;;;;;;0.87;0.77;;;9.80;99.90;;;;;;5044171;28;20179;-88
2023/03/22 03:02:12;;;;;;;0.50;0.40;;;9.80;99.90;;;;;;5038506;28;20210;-87
2023/03/22 03:04:45;;;;;;;0.50;0.50;;;9.80;99.90;;;;;;5036126;28;21060;-88
2023/03/22 03:07:15;;;;;;;4.27;1.00;;;9.90;99.90;;;;;;5033596;28;20229;-87
2023/03/22 03:09:42;;;;;;;4.50;0.73;;;9.90;99.90;;;;;;5035779;28;20758;-87
2023/03/22 03:12:32;;;;;;;0.63;0.60;;;9.90;99.90;;;;;;5036323;28;20225;-86
2023/03/22 03:14:58;;;;;;;0.97;0.97;;;9.90;99.90;;;;;;5035126;28;20887;-85
2023/03/22 03:17:56;;;;;;;1.33;0.73;;;9.90;99.90;;;;;;5026883;28;20182;-84
2023/03/22 03:20:48;;;;;;;1.87;0.77;;;10.00;99.90;;;;;;5042842;28;20218;-86
2023/03/22 03:23:27;;;;;;;1.73;0.50;;;10.00;99.90;;;;;;5035534;28;20318;-86
2023/03/22 03:26:01;;;;;;;0.40;0.40;;;10.00;99.90;;;;;;5050494;28;20277;-86
2023/03/22 03:29:18;;;;;;;2.10;1.37;;;10.00;99.90;;;;;;5035399;28;20249;-87
2023/03/22 03:31:52;;;;;;;0.60;0.60;;;10.10;99.90;;;;;;5027069;28;20238;-86
2023/03/22 03:34:30;;;;;;;3.27;2.13;;;10.10;99.90;;;;;;5034126;28;20222;-84
2023/03/22 03:37:10;;;;;;;9.30;1.33;;;10.10;99.90;;;;;;5036778;28;20415;-90
2023/03/22 03:39:42;;;;;;;1.33;1.23;;;10.10;99.90;;;;;;5043671;28;20218;-84
2023/03/22 03:42:13;;;;;;;4.30;0.80;;;10.10;99.90;;;;;;5032901;28;20264;-85
2023/03/22 03:44:39;;;;;;;1.27;0.70;;;10.10;99.90;;;;;;5034139;28;20573;-87
2023/03/22 03:47:07;;;;;;;2.40;1.17;;;10.10;99.90;;;;;;5033984;28;20212;-90
2023/03/22 03:49:34;;;;;;;1.27;1.23;;;10.10;99.90;;;;;;5022439;28;20462;-85
2023/03/22 03:52:00;;;;;;;1.37;0.83;;;10.10;99.90;;;;;;5021976;28;20240;-88
2023/03/22 03:54:26;;;;;;;0.70;0.50;;;10.20;99.90;;;;;;5032812;28;20205;-87
2023/03/22 03:56:52;;;;;;;2.93;1.27;;;10.10;99.90;;;;;;5034992;28;20189;-86
2023/03/22 03:59:19;;;;;;;0.73;0.60;;;10.20;99.90;;;;;;5034510;28;20186;-86
2023/03/22 04:01:50;;;;;;;1.63;1.40;;;10.20;99.90;;;;;;5030785;28;20238;-86
2023/03/22 04:04:17;;;;;;;10.77;1.60;;;10.20;99.90;;;;;;5032953;28;20230;-86
2023/03/22 04:06:43;;;;;;;1.37;1.07;;;10.20;99.90;;;;;;5032305;28;20225;-86
2023/03/22 04:09:09;;;;;;;0.67;0.30;;;10.20;99.90;;;;;;5033302;28;20224;-87
2023/03/22 04:11:34;;;;;;;8.03;0.70;;;10.20;99.90;;;;;;5026926;28;20286;-88
2023/03/22 04:14:00;;;;;;;0.50;0.50;;;10.20;99.90;;;;;;5015717;28;20267;-87
2023/03/22 04:16:26;;;;;;;6.90;1.13;;;10.20;99.90;;;;;;5032742;28;20222;-85
2023/03/22 04:18:52;;;;;;;1.37;1.03;;;10.20;99.90;;;;;;5032467;28;20554;-84
2023/03/22 04:21:18;;;;;;;0.50;0.50;;;10.20;99.90;;;;;;5035419;28;20789;-84
2023/03/22 04:23:45;;;;;;;4.93;1.67;;;10.30;99.90;;;;;;5036871;28;20194;-87
2023/03/22 04:26:11;;;;;;;1.17;0.83;;;10.30;99.90;;;;;;5019400;28;20550;-85
2023/03/22 04:28:37;;;;;;;3.10;0.67;;;10.30;99.90;;;;;;5037439;28;20214;-86
2023/03/22 04:31:03;;;;;;;1.97;1.17;;;10.30;99.90;;;;;;5035677;28;20698;-84
2023/03/22 04:33:31;;;;;;;1.77;1.67;;;10.20;99.90;;;;;;5034954;28;20229;-88
2023/03/22 04:35:58;;;;;;;4.77;1.17;;;10.30;99.90;;;;;;5036632;28;20759;-84
2023/03/22 04:38:24;;;;;;;0.80;0.80;;;10.30;99.90;;;;;;5019657;28;20232;-85
2023/03/22 04:40:50;;;;;;;1.23;1.10;;;10.30;99.90;;;;;;5037351;28;20242;-88
2023/03/22 04:43:17;;;;;;;3.80;0.77;;;10.20;99.90;;;;;;5035320;28;20268;-87
2023/03/22 04:45:45;;;;;;;4.17;0.87;;;10.20;99.90;;;;;;4991214;28;1179388;-86
2023/03/22 04:48:10;;;;;;;0.73;0.70;;;10.20;99.90;;;;;;5035012;28;20229;-86
2023/03/22 04:50:38;;;;;;;1.63;1.37;;;10.20;99.90;;;;;;5028349;28;20245;-85
2023/03/22 04:53:05;;;;;;;1.47;1.20;;;10.20;99.90;;;;;;5029089;28;20233;-86
2023/03/22 04:55:33;;;;;;;2.53;1.20;;;10.20;99.90;;;;;;5021373;28;20218;-86
2023/03/22 04:57:59;;;;;;;0.97;0.97;;;10.20;99.90;;;;;;5018855;28;20222;-85
2023/03/22 05:00:25;;;;;;;2.00;1.90;;;10.30;99.90;;;;;;5037124;28;20218;-88
2023/03/22 05:02:50;;;;;;;4.33;1.77;;;10.20;99.90;;;;;;5039763;28;20243;-86
2023/03/22 05:05:16;;;;;;;3.50;1.37;;;10.20;99.90;;;;;;5038875;28;20676;-88
2023/03/22 05:07:42;;;;;;;2.70;1.13;;;10.30;99.90;;;;;;5036871;28;20217;-84
2023/03/22 05:10:08;;;;;;;5.70;1.20;;;10.30;99.90;;;;;;5036054;28;20234;-85
2023/03/22 05:12:34;;;;;;;0.93;0.87;;;10.30;99.90;;;;;;5036456;28;20251;-85
2023/03/22 05:15:02;;;;;;;3.37;2.23;;;10.30;99.90;;;;;;5026725;28;20231;-86
2023/03/22 05:17:28;;;;;;;3.27;2.30;;;10.30;99.90;;;;;;5028473;28;20190;-85
2023/03/22 05:19:53;;;;;;;3.57;2.10;;;10.40;99.90;;;;;;5036313;28;20222;-87
2023/03/22 05:22:21;;;;;;;1.37;1.27;;;10.40;99.90;;;;;;5036251;28;20222;-85
2023/03/22 05:24:47;;;;;;;2.93;1.73;;;10.40;99.90;;;;;;5021867;28;20238;-85
2023/03/22 05:27:15;;;;;;;1.83;1.73;;;10.40;99.90;;;;;;5021390;28;20265;-88
2023/03/22 05:29:43;;;;;;;1.67;1.43;;;10.40;99.90;;;;;;5045633;28;20608;-85
2023/03/22 05:32:10;;;;;;;2.57;2.23;;;10.40;99.90;;;;;;5021942;28;20196;-86
2023/03/22 05:34:36;;;;;;;2.20;1.93;;;10.40;99.90;;;;;;5028474;28;20228;-85
2023/03/22 05:37:02;;;;;;;3.20;2.00;;;10.40;99.90;;;;;;5022959;28;20210;-85
2023/03/22 05:39:28;;;;;;;3.50;1.80;;;10.40;99.90;;;;;;5022119;28;20218;-86
2023/03/22 05:41:54;;;;;;;5.37;2.47;;;10.40;99.90;;;;;;5035780;28;20666;-87
2023/03/22 05:44:20;;;;;;;3.50;2.47;;;10.40;99.90;;;;;;5035815;28;20229;-86
2023/03/22 05:46:45;;;;;;;3.03;2.17;;;10.40;99.90;;;;;;5028550;28;20226;-86
2023/03/22 05:49:11;;;;;;;3.13;2.00;;;10.40;99.90;;;;;;5036332;28;20647;-87
2023/03/22 05:51:40;;;;;;;3.53;2.43;;;10.40;99.90;;;;;;5045426;28;20222;-87
2023/03/22 05:54:07;;;;;;;3.17;1.63;;;10.40;99.90;;;;;;5038602;28;20228;-85
2023/03/22 05:56:34;;;;;;;4.10;2.20;;;10.40;99.90;;;;;;5044485;28;20194;-87
2023/03/22 05:59:00;;;;;;;4.83;2.33;;;10.40;99.90;;;;;;5021641;28;20197;-88
2023/03/22 06:01:26;;;;;;;4.73;3.17;;;10.30;99.90;;;;;;5028202;28;20213;-87
2023/03/22 06:03:52;;;;;;;3.33;3.03;;;10.30;99.90;;;;;;5034841;28;20605;-89
2023/03/22 06:06:18;;;;;;;6.20;2.73;;;10.30;99.90;;;;;;5028956;28;20223;-88
2023/03/22 06:08:43;;;;;;;2.50;2.30;;;10.30;99.90;;;;;;5036317;28;20198;-87
2023/03/22 06:11:09;;;;;;;3.40;2.53;;;10.30;99.90;;;;;;5023972;28;20218;-89
2023/03/22 06:13:36;;;;;;;5.90;3.03;;;10.30;99.90;;;;;;5020344;28;20218;-89
2023/03/22 06:16:03;;;;;;;2.20;2.00;;;10.30;99.90;;;;;;5012295;28;20309;-92
2023/03/22 06:18:30;;;;;;;9.53;3.17;;;10.30;99.90;;;;;;5036022;28;20627;-88
2023/03/22 06:20:56;;;;;;;8.67;2.50;;;10.30;99.90;;;;;;5040344;28;20225;-88
2023/03/22 06:23:22;;;;;;;3.70;2.97;;;10.30;99.90;;;;;;5035700;28;20198;-88
2023/03/22 06:25:48;;;;;;;4.73;2.60;;;10.30;99.90;;;;;;5026021;28;20228;-89
2023/03/22 06:28:14;;;;;;;5.33;3.03;;;10.40;99.90;;;;;;5033480;28;20206;-89
2023/03/22 06:30:40;;;;;;;3.60;2.17;;;10.40;99.90;;;;;;5014342;28;20234;-87
2023/03/22 06:33:05;;;;;;;4.77;2.57;;;10.40;99.90;;;;;;5026692;28;21146;-87
2023/03/22 06:35:32;;;;;;;5.33;3.57;;;10.40;99.90;;;;;;5020514;28;20194;-93
2023/03/22 06:37:58;;;;;;;11.10;3.97;;;10.50;99.90;;;;;;5019021;28;20223;-89
2023/03/22 06:40:24;;;;;;;6.90;2.90;;;10.50;99.90;;;;;;5038729;28;20225;-89
2023/03/22 06:42:50;;;;;;;3.33;3.07;;;10.60;99.90;;;;;;5027721;28;20341;-88
2023/03/22 06:45:16;;;;;;;2.90;2.70;;;10.60;99.90;;;;;;5027083;28;20312;-88
2023/03/22 06:47:43;;;;;;;7.90;2.80;;;10.60;99.90;;;;;;5015126;28;20283;-87
2023/03/22 06:50:09;;;;;;;4.30;2.67;;;10.60;99.90;;;;;;5040517;28;20218;-90
2023/03/22 06:52:35;;;;;;;11.27;3.80;;;10.70;99.90;;;;;;5053226;28;20238;-87
2023/03/22 06:55:01;;;;;;;4.60;2.77;;;10.70;99.90;;;;;;5040547;28;20870;-87
2023/03/22 06:57:27;;;;;;;2.53;1.53;;;10.70;99.90;;;;;;5046424;28;20218;-91
2023/03/22 06:59:53;;;;;;;5.80;2.13;;;10.80;99.90;;;;;;5025886;28;20230;-91
2023/03/22 07:02:19;;;;;;;6.07;3.53;;;10.80;99.90;;;;;;5059345;28;20252;-90
2023/03/22 07:04:46;;;;;;;1.57;1.47;;;10.80;99.90;;;;;;5049284;28;20245;-88
2023/03/22 07:07:12;;;;;;;4.07;2.30;;;10.80;99.90;;;;;;5044289;28;20293;-88
2023/03/22 07:09:40;;;;;;;5.07;4.57;;;10.80;99.90;;;;;;5045111;28;20419;-91
2023/03/22 07:12:06;;;;;;;8.10;4.17;;;10.80;99.90;;;;;;5042866;28;20243;-90
2023/03/22 07:14:32;;;;;;;13.53;5.07;;;10.80;99.90;;;;;;5045940;28;20179;-89
2023/03/22 07:16:58;;;;;;;4.20;3.50;;;10.80;99.90;;;;;;5041343;28;20318;-91
2023/03/22 07:19:27;;;;;;;4.60;3.43;;;10.90;99.90;;;;;;5034494;28;20222;-88
2023/03/22 07:21:52;;;;;;;6.70;3.27;;;10.90;99.90;;;;;;5043923;28;20785;-92
2023/03/22 07:24:18;;;;;;;4.33;3.53;;;10.90;99.90;;;;;;5033488;28;20221;-90
2023/03/22 07:26:45;;;;;;;3.83;2.60;;;10.90;99.90;;;;;;5036049;28;20175;-89
2023/03/22 07:29:11;;;;;;;10.73;5.50;;;11.00;99.90;;;;;;5067492;28;20213;-87
2023/03/22 07:31:36;;;;;;;3.23;3.03;;;11.00;99.90;;;;;;5031194;28;20238;-87
2023/03/22 07:34:06;;;;;;;4.60;2.90;;;11.10;99.90;;;;;;5031032;28;20226;-88
2023/03/22 07:36:32;;;;;;;4.03;3.30;;;11.10;99.90;;;;;;5054899;28;20244;-87
2023/03/22 07:38:58;;;;;;;4.37;3.20;;;11.10;99.90;;;;;;5054952;28;20206;-88
2023/03/22 07:41:25;;;;;;;3.47;2.77;;;11.20;99.90;;;;;;5030416;28;20619;-88
2023/03/22 07:43:51;;;;;;;3.57;2.00;;;11.20;99.90;;;;;;5056696;28;20241;-91
2023/03/22 07:46:17;;;;;;;7.17;3.73;;;11.30;99.90;;;;;;5051729;28;20244;-87
2023/03/22 07:48:43;;;;;;;7.20;4.03;;;11.30;99.90;;;;;;5030596;28;20232;-87
2023/03/22 07:51:09;;;;;;;5.27;3.60;;;11.30;99.90;;;;;;5063552;28;20237;-92
2023/03/22 07:53:35;;;;;;;4.83;2.33;;;11.40;99.90;;;;;;5042069;28;20183;-91
2023/03/22 07:56:02;;;;;;;5.17;1.83;;;11.40;99.90;;;;;;5032055;28;20185;-88
2023/03/22 07:58:28;;;;;;;2.17;1.27;;;11.50;99.90;;;;;;5051318;28;20249;-92
2023/03/22 08:00:54;;;;;;;2.90;2.37;;;11.60;99.90;;;;;;5046580;28;20251;-89
2023/03/22 08:03:21;;;;;;;2.73;1.80;;;11.70;99.90;;;;;;5040509;28;20297;-93
2023/03/22 08:05:47;;;;;;;4.43;2.90;;;11.70;99.90;;;;;;5045766;28;20809;-91
2023/03/22 08:08:13;;;;;;;5.23;2.73;;;11.80;99.90;;;;;;5017207;28;20231;-87
2023/03/22 08:10:39;;;;;;;3.77;2.27;;;12.00;99.90;;;;;;5027645;28;20238;-92
2023/03/22 08:13:05;;;;;;;3.17;2.07;;;11.90;99.90;;;;;;5046709;28;20282;-87
2023/03/22 08:15:30;;;;;;;1.30;1.20;;;11.90;99.90;;;;;;5039917;28;20248;-89
2023/03/22 08:17:57;;;;;;;5.73;1.40;;;11.80;99.90;;;;;;5020418;28;20229;-86
2023/03/22 08:20:26;;;;;;;4.20;1.77;;;11.70;99.90;;;;;;5037653;28;20209;-90
2023/03/22 08:22:52;;;;;;;1.13;1.07;;;11.60;99.90;;;;;;5038979;28;20219;-88
2023/03/22 08:25:18;;;;;;;4.93;3.00;;;11.70;99.90;;;;;;5044899;28;20221;-88
2023/03/22 08:27:44;;;;;;;1.57;1.47;;;11.80;99.90;;;;;;5025315;28;20218;-89
2023/03/22 08:30:11;;;;;;;3.17;2.80;;;11.80;99.90;;;;;;5042889;28;20253;-88
2023/03/22 08:32:37;;;;;;;4.07;2.77;;;11.80;99.90;;;;;;5043074;28;20614;-89
2023/03/22 08:35:06;;;;;;;2.87;1.40;;;11.70;99.90;;;;;;5039416;28;20201;-87
2023/03/22 08:37:32;;;;;;;9.93;3.23;;;11.80;99.90;;;;;;5036566;28;20253;-88
2023/03/22 08:39:58;;;;;;;2.27;1.67;;;11.80;99.90;;;;;;5036080;28;20252;-89
2023/03/22 08:42:24;;;;;;;5.27;1.63;;;11.70;99.90;;;;;;5023182;28;20219;-86
2023/03/22 08:44:50;;;;;;;2.93;1.90;;;11.50;99.90;;;;;;5025006;28;20671;-87
2023/03/22 08:47:17;;;;;;;1.27;1.17;;;11.50;99.90;;;;;;5036978;28;20194;-88
2023/03/22 08:49:42;;;;;;;3.20;2.13;;;11.30;99.90;;;;;;5021694;28;20221;-87
2023/03/22 08:52:09;;;;;;;16.23;3.67;;;11.30;99.90;;;;;;5044511;28;20221;-87
2023/03/22 08:54:35;;;;;;;2.93;1.70;;;11.20;99.90;;;;;;5026954;28;20210;-88
2023/03/22 08:57:02;;;;;;;2.80;2.10;;;11.10;99.90;;;;;;5051267;28;20222;-86
2023/03/22 08:59:28;;;;;;;1.67;1.57;;;11.20;99.90;;;;;;5047693;28;20182;-88
2023/03/22 09:01:53;;;;;;;1.03;1.00;;;11.10;99.90;;;;;;5040357;28;20211;-86
2023/03/22 09:04:19;;;;;;;1.70;1.60;;;11.00;99.90;;;;;;5024641;28;20225;-89
2023/03/22 09:06:45;;;;;;;2.13;1.60;;;11.00;99.90;;;;;;5056457;28;20248;-91
2023/03/22 09:09:11;;;;;;;2.50;2.30;;;10.90;99.90;;;;;;5041817;28;20661;-89
2023/03/22 09:11:39;;;;;;;5.50;1.57;;;10.90;99.90;;;;;;5031034;28;20216;-92
2023/03/22 09:14:05;;;;;;;1.53;1.43;;;10.80;99.90;;;;;;5050942;28;20198;-90
2023/03/22 09:16:31;;;;;;;2.23;1.57;;;10.80;99.90;;;;;;5031964;28;20214;-89
2023/03/22 09:18:57;;;;;;;1.67;1.47;;;10.80;99.90;;;;;;5032417;28;20226;-85
2023/03/22 09:21:22;;;;;;;2.00;1.50;;;10.80;99.90;;;;;;5026186;28;20214;-87
2023/03/22 09:23:49;;;;;;;3.63;1.60;;;10.70;99.90;;;;;;5051450;28;20190;-88
2023/03/22 09:26:15;;;;;;;2.07;1.67;;;10.70;99.90;;;;;;5036615;28;20190;-88
2023/03/22 09:28:41;;;;;;;1.27;1.17;;;10.70;99.90;;;;;;5043457;28;20247;-90
2023/03/22 09:31:08;;;;;;;6.30;1.50;;;10.60;99.90;;;;;;5042619;28;20230;-88
2023/03/22 09:33:35;;;;;;;3.93;1.83;;;10.60;99.90;;;;;;5024100;28;20222;-89
2023/03/22 09:36:01;;;;;;;4.40;2.47;;;10.60;99.90;;;;;;5042677;28;20233;-88
2023/03/22 09:38:31;;;;;;;3.93;3.37;;;10.60;99.90;;;;;;5041535;28;20652;-93
2023/03/22 09:41:09;;;;;;;3.67;3.20;;;10.50;99.90;;;;;;5041829;28;20217;-89
2023/03/22 09:43:38;;;;;;;3.93;1.90;;;10.60;99.90;;;;;;5033786;28;20209;-89
2023/03/22 09:46:11;;;;;;;2.60;1.63;;;10.50;99.90;;;;;;5048592;28;20256;-89
2023/03/22 09:48:40;;;;;;;3.77;3.37;;;10.50;99.90;;;;;;5045961;28;20600;-87
2023/03/22 09:51:25;;;;;;;3.27;2.30;;;10.50;99.90;;;;;;5037867;28;20276;-91
2023/03/22 09:53:52;;;;;;;1.43;1.30;;;10.50;99.90;;;;;;5015676;28;20231;-85
2023/03/22 09:56:30;;;;;;;2.77;2.07;;;10.50;99.90;;;;;;5056972;28;20651;-89
2023/03/22 09:59:16;;;;;;;2.60;1.57;;;10.50;99.90;;;;;;5050773;28;20245;-94
2023/03/22 10:02:36;;;;;;;2.70;1.67;;;10.50;99.90;;;;;;5044285;28;20213;-86
2023/03/22 10:05:29;;;;;;;2.77;2.27;;;10.60;99.90;;;;;;5000237;28;20298;-92
2023/03/22 10:08:25;;;;;;;0.83;0.80;;;10.50;99.90;;;;;;5048081;28;20229;-88
2023/03/22 10:10:52;;;;;;;2.90;2.37;;;10.40;99.90;;;;;;5043368;28;20645;-87
2023/03/22 10:13:46;;;;;;;3.00;2.80;;;10.40;99.90;;;;;;5016729;28;20241;-89
2023/03/22 10:16:25;;;;;;;1.13;1.03;;;10.40;99.90;;;;;;5019646;28;20225;-88
2023/03/22 10:19:03;;;;;;;2.10;1.80;;;10.50;99.90;;;;;;5040874;28;20225;-90
2023/03/22 10:21:29;;;;;;;4.73;2.17;;;10.50;99.90;;;;;;5048801;28;20346;-88
2023/03/22 10:24:03;;;;;;;2.67;1.50;;;10.50;99.90;;;;;;5003007;28;20323;-88
2023/03/22 10:26:35;;;;;;;5.23;1.70;;;10.50;99.90;;;;;;5037328;28;20221;-89
2023/03/22 10:29:05;;;;;;;12.70;1.80;;;10.50;99.90;;;;;;5037214;28;20976;-89
2023/03/22 10:31:33;;;;;;;6.00;1.63;;;10.50;99.90;;;;;;5045090;28;20233;-87
2023/03/22 10:34:05;;;;;;;1.60;1.23;;;10.60;99.90;;;;;;5018867;28;20692;-88
2023/03/22 10:36:36;;;;;;;3.00;2.00;;;10.60;99.90;;;;;;5039301;28;20210;-89
2023/03/22 10:39:09;;;;;;;4.07;1.90;;;10.60;99.90;;;;;;5061578;28;20301;-89
2023/03/22 10:41:35;;;;;;;4.50;1.70;;;10.70;99.90;;;;;;5040329;28;20229;-88
2023/03/22 10:44:03;;;;;;;3.63;2.27;;;10.70;99.90;;;;;;5027476;28;20281;-88
2023/03/22 10:46:39;;;;;;;1.13;1.07;;;10.70;99.90;;;;;;5037496;28;20243;-87
2023/03/22 10:49:06;;;;;;;2.77;1.40;;;10.70;99.90;;;;;;5034712;28;20229;-86
2023/03/22 10:51:45;;;;;;;1.60;1.50;;;10.70;99.90;;;;;;5038531;28;20221;-87
2023/03/22 10:54:17;;;;;;;1.57;1.23;;;10.70;99.90;;;;;;5037748;28;20218;-90
2023/03/22 10:56:43;;;;;;;2.30;2.20;;;10.70;99.90;;;;;;5038358;28;20178;-92
2023/03/22 10:59:48;;;;;;;1.90;1.67;;;10.80;99.90;;;;;;5036657;28;20217;-88
2023/03/22 11:02:23;;;;;;;2.93;2.37;;;10.70;99.90;;;;;;5038518;28;20206;-89
2023/03/22 11:04:51;;;;;;;1.53;1.17;;;10.80;99.90;;;;;;5043910;28;20209;-86
2023/03/22 11:07:29;;;;;;;5.67;2.80;;;10.80;99.90;;;;;;5060245;28;20329;-84
2023/03/22 11:10:07;;;;;;;4.97;1.13;;;10.70;99.90;;;;;;5036089;28;20214;-86
2023/03/22 11:13:02;;;;;;;2.60;2.40;;;10.80;99.90;;;;;;5035588;28;21013;-85
2023/03/22 11:15:31;;;;;;;16.57;7.10;;;10.90;99.90;;;;;;5017604;28;20249;-87
2023/03/22 11:18:04;;;;;;;20.93;8.80;;;10.90;99.90;;;;;;5035866;28;20221;-87
2023/03/22 11:20:31;;;;;;;5.30;3.37;;;10.80;99.90;;;;;;5039853;28;20633;-86
2023/03/22 11:23:01;;;;;;;9.10;4.83;;;10.80;99.90;;;;;;5036790;28;20222;-86
2023/03/22 11:25:30;;;;;;;19.20;13.80;;;10.90;99.90;;;;;;5037788;28;20214;-91
2023/03/22 11:28:05;;;;;;;4.60;4.20;;;10.90;99.90;;;;;;5036555;28;20214;-87
2023/03/22 11:30:32;;;;;;;3.93;1.93;;;11.00;99.90;;;;;;5037254;28;20556;-88
2023/03/22 11:33:18;;;;;;;3.40;2.60;;;11.00;99.90;;;;;;5035499;28;20214;-88
2023/03/22 11:35:53;;;;;;;4.40;3.00;;;11.00;99.90;;;;;;5038422;28;20333;-89
2023/03/22 11:38:36;;;;;;;10.40;1.60;;;11.10;99.90;;;;;;5039911;28;20296;-87
2023/03/22 11:41:06;;;;;;;2.03;1.83;;;11.10;99.90;;;;;;5067464;28;20286;-91
2023/03/22 11:43:39;;;;;;;3.23;2.93;;;11.10;99.90;;;;;;5034902;28;20214;-90
2023/03/22 11:46:07;;;;;;;3.10;2.03;;;11.00;99.90;;;;;;5039837;28;20260;-91
2023/03/22 11:48:35;;;;;;;1.43;1.27;;;11.10;99.90;;;;;;5047346;28;20217;-87
2023/03/22 11:51:15;;;;;;;2.03;1.23;;;11.00;99.90;;;;;;5017420;28;20247;-89
2023/03/22 11:53:45;;;;;;;1.20;1.10;;;11.00;99.90;;;;;;5044662;28;20235;-90
2023/03/22 11:56:16;;;;;;;1.23;1.13;;;11.00;99.90;;;;;;5038000;28;20170;-87
2023/03/22 11:59:13;;;;;;;4.07;1.40;;;11.10;99.90;;;;;;5066160;28;20218;-88
2023/03/22 12:01:53;;;;;;;2.57;1.97;;;11.10;99.90;;;;;;5057342;28;20222;-91
2023/03/22 12:04:25;;;;;;;2.67;1.47;;;11.10;99.90;;;;;;5033186;28;20536;-92
2023/03/22 12:06:56;;;;;;;1.57;1.47;;;11.10;99.90;;;;;;5037511;28;20242;-90
2023/03/22 12:09:36;;;;;;;2.53;1.93;;;11.20;99.90;;;;;;5037498;28;20271;-86
2023/03/22 12:12:05;;;;;;;2.10;1.73;;;11.20;99.90;;;;;;5024311;28;20230;-88
2023/03/22 12:14:58;;;;;;;2.07;1.93;;;11.10;99.90;;;;;;5027202;28;20656;-88
2023/03/22 12:17:58;;;;;;;2.57;2.17;;;11.20;99.90;;;;;;5034817;28;20694;-90
2023/03/22 12:20:50;;;;;;;1.17;1.17;;;11.20;99.90;;;;;;5043904;28;20226;-90
2023/03/22 12:23:18;;;;;;;3.97;2.37;;;11.10;99.90;;;;;;5034269;28;20315;-88
2023/03/22 12:26:13;;;;;;;2.03;1.50;;;11.10;99.90;;;;;;5036300;28;20220;-87
2023/03/22 12:28:46;;;;;;;2.83;2.30;;;11.10;99.90;;;;;;5023826;28;20253;-90
2023/03/22 12:31:25;;;;;;;1.47;1.37;;;11.00;99.90;;;;;;5042006;28;20226;-89
2023/03/22 12:33:55;;;;;;;5.83;4.27;;;11.10;99.90;;;;;;5059057;28;20788;-89
2023/03/22 12:36:34;;;;;;;3.37;1.80;;;11.00;99.90;;;;;;5037880;28;21345;-89
2023/03/22 12:39:01;;;;;;;6.50;1.73;;;11.00;99.90;;;;;;5036229;28;20202;-89
2023/03/22 12:41:37;;;;;;;1.53;1.33;;;11.00;99.90;;;;;;5039108;28;20405;-93
2023/03/22 12:44:16;;;;;;;2.57;2.37;;;10.90;99.90;;;;;;5040385;28;20213;-88
2023/03/22 12:46:59;;;;;;;3.20;2.07;;;11.00;99.90;;;;;;5052164;28;20291;-87
2023/03/22 12:49:28;;;;;;;5.20;2.10;;;11.00;99.90;;;;;;5051361;28;20237;-87
2023/03/22 12:52:05;;;;;;;2.10;1.57;;;11.00;99.90;;;;;;5047009;28;20218;-89
2023/03/22 12:54:30;;;;;;;8.70;2.03;;;11.00;99.90;;;;;;5038932;28;20204;-86
2023/03/22 12:56:56;;;;;;;4.50;3.00;;;11.00;99.90;;;;;;5040401;28;20214;-87
2023/03/22 12:59:27;;;;;;;1.83;1.70;;;11.00;99.90;;;;;;5043501;28;20186;-89
2023/03/22 13:01:58;;;;;;;1.57;1.47;;;11.10;99.90;;;;;;5042057;28;21037;-90
2023/03/22 13:04:26;;;;;;;1.47;1.03;;;11.10;99.90;;;;;;5048233;28;20702;-86
2023/03/22 13:06:55;;;;;;;3.67;2.60;;;11.10;99.90;;;;;;5042867;28;20211;-88